sensor_id;sensor_type;location;lat;lon;timestamp;temperature;humidity
78793;SHT31;68134;51.984;5.652;2023-03-03T00:01:36;5.3;66.6
78793;SHT31;68134;51.984;5.652;2023-03-03T00:04:06;5.3;66.8
78793;SHT31;68134;51.984;5.652;2023-03-03T00:06:36;5.3;66.7
78793;SHT31;68134;51.984;5.652;2023-03-03T00:09:05;5.4;67.0
78793;SHT31;68134;51.984;5.652;2023-03-03T00:11:35;5.4;66.8
78793;SHT31;68134;51.984;5.652;2023-03-03T00:14:19;5.4;67.0
78793;SHT31;68134;51.984;5.652;2023-03-03T00:16:50;5.5;67.0
78793;SHT31;68134;51.984;5.652;2023-03-03T00:19:20;5.5;66.9
78793;SHT31;68134;51.984;5.652;2023-03-03T00:21:51;5.5;66.9
78793;SHT31;68134;51.984;5.652;2023-03-03T00:24:34;5.5;66.9
78793;SHT31;68134;51.984;5.652;2023-03-03T00:27:17;5.5;66.8
78793;SHT31;68134;51.984;5.652;2023-03-03T00:29:52;5.5;66.6
78793;SHT31;68134;51.984;5.652;2023-03-03T00:32:24;5.6;66.4
78793;SHT31;68134;51.984;5.652;2023-03-03T00:34:59;5.6;66.3
78793;SHT31;68134;51.984;5.652;2023-03-03T00:37:34;5.6;66.2
78793;SHT31;68134;51.984;5.652;2023-03-03T00:41:54;5.6;65.9
78793;SHT31;68134;51.984;5.652;2023-03-03T00:44:42;5.5;65.7
78793;SHT31;68134;51.984;5.652;2023-03-03T00:47:29;5.5;65.6
78793;SHT31;68134;51.984;5.652;2023-03-03T00:50:31;5.5;65.5
78793;SHT31;68134;51.984;5.652;2023-03-03T00:53:10;5.5;65.6
78793;SHT31;68134;51.984;5.652;2023-03-03T00:55:42;5.4;65.6
78793;SHT31;68134;51.984;5.652;2023-03-03T00:58:12;5.4;65.8
78793;SHT31;68134;51.984;5.652;2023-03-03T01:00:45;5.4;65.9
78793;SHT31;68134;51.984;5.652;2023-03-03T01:03:16;5.3;66.0
78793;SHT31;68134;51.984;5.652;2023-03-03T01:05:48;5.3;66.1
78793;SHT31;68134;51.984;5.652;2023-03-03T01:08:19;5.3;66.3
78793;SHT31;68134;51.984;5.652;2023-03-03T01:10:51;5.3;66.5
78793;SHT31;68134;51.984;5.652;2023-03-03T01:13:24;5.3;66.6
78793;SHT31;68134;51.984;5.652;2023-03-03T01:15:55;5.3;66.5
78793;SHT31;68134;51.984;5.652;2023-03-03T01:18:26;5.3;66.6
78793;SHT31;68134;51.984;5.652;2023-03-03T01:20:55;5.3;66.6
78793;SHT31;68134;51.984;5.652;2023-03-03T01:23:25;5.3;66.7
78793;SHT31;68134;51.984;5.652;2023-03-03T01:25:55;5.3;66.7
78793;SHT31;68134;51.984;5.652;2023-03-03T01:28:25;5.3;66.7
78793;SHT31;68134;51.984;5.652;2023-03-03T01:30:59;5.3;66.6
78793;SHT31;68134;51.984;5.652;2023-03-03T01:33:29;5.3;66.6
78793;SHT31;68134;51.984;5.652;2023-03-03T01:36:00;5.3;66.6
78793;SHT31;68134;51.984;5.652;2023-03-03T01:38:30;5.3;66.7
78793;SHT31;68134;51.984;5.652;2023-03-03T01:41:00;5.3;66.7
78793;SHT31;68134;51.984;5.652;2023-03-03T01:43:34;5.4;66.6
78793;SHT31;68134;51.984;5.652;2023-03-03T01:46:29;5.4;66.6
78793;SHT31;68134;51.984;5.652;2023-03-03T01:49:03;5.4;66.5
78793;SHT31;68134;51.984;5.652;2023-03-03T01:51:38;5.4;66.1
78793;SHT31;68134;51.984;5.652;2023-03-03T01:54:20;5.4;66.1
78793;SHT31;68134;51.984;5.652;2023-03-03T01:56:54;5.4;66.0
78793;SHT31;68134;51.984;5.652;2023-03-03T01:59:29;5.4;65.9
78793;SHT31;68134;51.984;5.652;2023-03-03T02:02:02;5.4;65.9
78793;SHT31;68134;51.984;5.652;2023-03-03T02:04:33;5.4;66.0
78793;SHT31;68134;51.984;5.652;2023-03-03T02:07:06;5.4;66.0
78793;SHT31;68134;51.984;5.652;2023-03-03T02:09:44;5.4;65.9
78793;SHT31;68134;51.984;5.652;2023-03-03T02:12:18;5.5;65.9
78793;SHT31;68134;51.984;5.652;2023-03-03T02:14:48;5.5;66.0
78793;SHT31;68134;51.984;5.652;2023-03-03T02:17:18;5.5;65.9
78793;SHT31;68134;51.984;5.652;2023-03-03T02:19:53;5.5;65.8
78793;SHT31;68134;51.984;5.652;2023-03-03T02:22:33;5.5;65.8
78793;SHT31;68134;51.984;5.652;2023-03-03T02:25:09;5.5;65.8
78793;SHT31;68134;51.984;5.652;2023-03-03T02:27:43;5.5;65.9
78793;SHT31;68134;51.984;5.652;2023-03-03T02:30:18;5.5;65.7
78793;SHT31;68134;51.984;5.652;2023-03-03T02:32:48;5.5;65.8
78793;SHT31;68134;51.984;5.652;2023-03-03T02:35:30;5.5;65.8
78793;SHT31;68134;51.984;5.652;2023-03-03T02:38:10;5.5;65.9
78793;SHT31;68134;51.984;5.652;2023-03-03T02:40:55;5.5;65.8
78793;SHT31;68134;51.984;5.652;2023-03-03T02:43:32;5.5;65.8
78793;SHT31;68134;51.984;5.652;2023-03-03T02:46:05;5.5;65.8
78793;SHT31;68134;51.984;5.652;2023-03-03T02:48:34;5.5;66.1
78793;SHT31;68134;51.984;5.652;2023-03-03T02:51:04;5.5;66.0
78793;SHT31;68134;51.984;5.652;2023-03-03T02:53:34;5.5;65.9
78793;SHT31;68134;51.984;5.652;2023-03-03T02:56:04;5.5;66.1
78793;SHT31;68134;51.984;5.652;2023-03-03T02:58:36;5.5;66.1
78793;SHT31;68134;51.984;5.652;2023-03-03T03:01:05;5.5;66.2
78793;SHT31;68134;51.984;5.652;2023-03-03T03:03:35;5.5;66.1
78793;SHT31;68134;51.984;5.652;2023-03-03T03:06:06;5.5;66.1
78793;SHT31;68134;51.984;5.652;2023-03-03T03:08:35;5.5;66.0
78793;SHT31;68134;51.984;5.652;2023-03-03T03:11:06;5.5;65.8
78793;SHT31;68134;51.984;5.652;2023-03-03T03:13:35;5.5;65.8
78793;SHT31;68134;51.984;5.652;2023-03-03T03:16:06;5.5;65.8
78793;SHT31;68134;51.984;5.652;2023-03-03T03:18:36;5.5;65.8
78793;SHT31;68134;51.984;5.652;2023-03-03T03:21:11;5.5;65.8
78793;SHT31;68134;51.984;5.652;2023-03-03T03:23:41;5.5;65.8
78793;SHT31;68134;51.984;5.652;2023-03-03T03:26:11;5.5;65.7
78793;SHT31;68134;51.984;5.652;2023-03-03T03:28:41;5.4;65.9
78793;SHT31;68134;51.984;5.652;2023-03-03T03:31:10;5.4;65.8
78793;SHT31;68134;51.984;5.652;2023-03-03T03:33:40;5.4;65.9
78793;SHT31;68134;51.984;5.652;2023-03-03T03:36:10;5.4;66.0
78793;SHT31;68134;51.984;5.652;2023-03-03T03:38:40;5.4;66.0
78793;SHT31;68134;51.984;5.652;2023-03-03T03:41:11;5.4;66.0
78793;SHT31;68134;51.984;5.652;2023-03-03T03:43:41;5.4;66.0
78793;SHT31;68134;51.984;5.652;2023-03-03T03:46:11;5.3;66.1
78793;SHT31;68134;51.984;5.652;2023-03-03T03:48:42;5.3;65.9
78793;SHT31;68134;51.984;5.652;2023-03-03T03:51:12;5.3;65.9
78793;SHT31;68134;51.984;5.652;2023-03-03T03:53:42;5.3;65.9
78793;SHT31;68134;51.984;5.652;2023-03-03T03:56:12;5.3;66.0
78793;SHT31;68134;51.984;5.652;2023-03-03T03:58:41;5.3;65.9
78793;SHT31;68134;51.984;5.652;2023-03-03T04:01:12;5.3;66.2
78793;SHT31;68134;51.984;5.652;2023-03-03T04:03:42;5.3;66.2
78793;SHT31;68134;51.984;5.652;2023-03-03T04:06:11;5.2;66.1
78793;SHT31;68134;51.984;5.652;2023-03-03T04:08:42;5.2;66.2
78793;SHT31;68134;51.984;5.652;2023-03-03T04:11:11;5.3;66.2
78793;SHT31;68134;51.984;5.652;2023-03-03T04:13:41;5.3;66.1
78793;SHT31;68134;51.984;5.652;2023-03-03T04:16:11;5.3;65.9
78793;SHT31;68134;51.984;5.652;2023-03-03T04:18:41;5.3;65.9
78793;SHT31;68134;51.984;5.652;2023-03-03T04:21:13;5.3;65.8
78793;SHT31;68134;51.984;5.652;2023-03-03T04:23:43;5.3;65.7
78793;SHT31;68134;51.984;5.652;2023-03-03T04:26:13;5.3;65.6
78793;SHT31;68134;51.984;5.652;2023-03-03T04:28:43;5.3;65.8
78793;SHT31;68134;51.984;5.652;2023-03-03T04:31:12;5.2;65.7
78793;SHT31;68134;51.984;5.652;2023-03-03T04:33:42;5.2;65.9
78793;SHT31;68134;51.984;5.652;2023-03-03T04:36:11;5.2;65.9
78793;SHT31;68134;51.984;5.652;2023-03-03T04:38:41;5.2;66.0
78793;SHT31;68134;51.984;5.652;2023-03-03T04:41:11;5.2;65.9
78793;SHT31;68134;51.984;5.652;2023-03-03T04:43:41;5.2;66.0
78793;SHT31;68134;51.984;5.652;2023-03-03T04:46:10;5.2;65.9
78793;SHT31;68134;51.984;5.652;2023-03-03T04:48:40;5.2;65.9
78793;SHT31;68134;51.984;5.652;2023-03-03T04:51:09;5.2;66.1
78793;SHT31;68134;51.984;5.652;2023-03-03T04:53:39;5.2;66.1
78793;SHT31;68134;51.984;5.652;2023-03-03T04:56:09;5.2;66.3
78793;SHT31;68134;51.984;5.652;2023-03-03T04:58:39;5.1;66.4
78793;SHT31;68134;51.984;5.652;2023-03-03T05:01:11;5.1;66.4
78793;SHT31;68134;51.984;5.652;2023-03-03T05:03:41;5.1;66.6
78793;SHT31;68134;51.984;5.652;2023-03-03T05:06:11;5.1;66.7
78793;SHT31;68134;51.984;5.652;2023-03-03T05:08:41;5.1;66.7
78793;SHT31;68134;51.984;5.652;2023-03-03T05:11:11;5.1;66.6
78793;SHT31;68134;51.984;5.652;2023-03-03T05:13:41;5.1;66.5
78793;SHT31;68134;51.984;5.652;2023-03-03T05:16:11;5.1;66.2
78793;SHT31;68134;51.984;5.652;2023-03-03T05:18:40;5.1;66.4
78793;SHT31;68134;51.984;5.652;2023-03-03T05:21:11;5.1;66.4
78793;SHT31;68134;51.984;5.652;2023-03-03T05:23:43;5.1;66.4
78793;SHT31;68134;51.984;5.652;2023-03-03T05:26:13;5.1;66.2
78793;SHT31;68134;51.984;5.652;2023-03-03T05:28:43;5.1;66.5
78793;SHT31;68134;51.984;5.652;2023-03-03T05:31:13;5.1;66.7
78793;SHT31;68134;51.984;5.652;2023-03-03T05:33:42;5.1;66.6
78793;SHT31;68134;51.984;5.652;2023-03-03T05:36:12;5.1;66.6
78793;SHT31;68134;51.984;5.652;2023-03-03T05:38:41;5.1;66.3
78793;SHT31;68134;51.984;5.652;2023-03-03T05:41:11;5.1;66.2
78793;SHT31;68134;51.984;5.652;2023-03-03T05:43:41;5.0;66.1
78793;SHT31;68134;51.984;5.652;2023-03-03T05:46:11;5.0;66.1
78793;SHT31;68134;51.984;5.652;2023-03-03T05:48:41;5.0;66.4
78793;SHT31;68134;51.984;5.652;2023-03-03T05:51:11;5.0;66.6
78793;SHT31;68134;51.984;5.652;2023-03-03T05:53:41;5.0;66.6
78793;SHT31;68134;51.984;5.652;2023-03-03T05:56:11;5.0;66.7
78793;SHT31;68134;51.984;5.652;2023-03-03T05:58:40;5.0;66.7
78793;SHT31;68134;51.984;5.652;2023-03-03T06:01:10;4.9;66.9
78793;SHT31;68134;51.984;5.652;2023-03-03T06:03:40;4.9;66.9
78793;SHT31;68134;51.984;5.652;2023-03-03T06:06:09;4.9;67.0
78793;SHT31;68134;51.984;5.652;2023-03-03T06:08:40;4.9;67.1
78793;SHT31;68134;51.984;5.652;2023-03-03T06:11:10;4.9;67.1
78793;SHT31;68134;51.984;5.652;2023-03-03T06:13:43;5.0;67.1
78793;SHT31;68134;51.984;5.652;2023-03-03T06:16:12;5.0;67.2
78793;SHT31;68134;51.984;5.652;2023-03-03T06:18:42;5.0;67.2
78793;SHT31;68134;51.984;5.652;2023-03-03T06:21:14;5.0;67.2
78793;SHT31;68134;51.984;5.652;2023-03-03T06:23:43;5.0;67.2
78793;SHT31;68134;51.984;5.652;2023-03-03T06:26:13;5.0;67.1
78793;SHT31;68134;51.984;5.652;2023-03-03T06:28:42;5.0;66.8
78793;SHT31;68134;51.984;5.652;2023-03-03T06:31:12;5.1;66.8
78793;SHT31;68134;51.984;5.652;2023-03-03T06:33:44;5.1;66.9
78793;SHT31;68134;51.984;5.652;2023-03-03T06:36:15;5.1;67.0
78793;SHT31;68134;51.984;5.652;2023-03-03T06:38:47;5.1;67.0
78793;SHT31;68134;51.984;5.652;2023-03-03T06:41:17;5.1;67.0
78793;SHT31;68134;51.984;5.652;2023-03-03T06:43:46;5.1;67.0
78793;SHT31;68134;51.984;5.652;2023-03-03T06:46:16;5.1;67.1
78793;SHT31;68134;51.984;5.652;2023-03-03T06:48:46;5.1;67.1
78793;SHT31;68134;51.984;5.652;2023-03-03T06:51:22;5.1;67.2
78793;SHT31;68134;51.984;5.652;2023-03-03T06:53:55;5.1;67.3
78793;SHT31;68134;51.984;5.652;2023-03-03T06:56:28;5.1;67.4
78793;SHT31;68134;51.984;5.652;2023-03-03T06:59:00;5.1;67.6
78793;SHT31;68134;51.984;5.652;2023-03-03T07:01:34;5.1;67.7
78793;SHT31;68134;51.984;5.652;2023-03-03T07:04:09;5.1;67.9
78793;SHT31;68134;51.984;5.652;2023-03-03T07:06:42;5.1;68.0
78793;SHT31;68134;51.984;5.652;2023-03-03T07:09:21;5.2;68.1
78793;SHT31;68134;51.984;5.652;2023-03-03T07:11:53;5.2;68.2
78793;SHT31;68134;51.984;5.652;2023-03-03T07:14:25;5.2;68.4
78793;SHT31;68134;51.984;5.652;2023-03-03T07:16:58;5.2;68.4
78793;SHT31;68134;51.984;5.652;2023-03-03T07:19:34;5.2;68.5
78793;SHT31;68134;51.984;5.652;2023-03-03T07:22:15;5.2;68.6
78793;SHT31;68134;51.984;5.652;2023-03-03T07:24:48;5.3;68.5
78793;SHT31;68134;51.984;5.652;2023-03-03T07:27:23;5.3;68.7
78793;SHT31;68134;51.984;5.652;2023-03-03T07:29:58;5.3;68.7
78793;SHT31;68134;51.984;5.652;2023-03-03T07:32:36;5.3;68.9
78793;SHT31;68134;51.984;5.652;2023-03-03T07:35:23;5.3;69.1
78793;SHT31;68134;51.984;5.652;2023-03-03T07:37:55;5.3;69.1
78793;SHT31;68134;51.984;5.652;2023-03-03T07:40:35;5.4;69.2
78793;SHT31;68134;51.984;5.652;2023-03-03T07:45:26;5.4;69.3
78793;SHT31;68134;51.984;5.652;2023-03-03T07:48:13;5.4;69.4
78793;SHT31;68134;51.984;5.652;2023-03-03T07:50:40;5.5;69.1
78793;SHT31;68134;51.984;5.652;2023-03-03T07:53:17;5.5;69.2
78793;SHT31;68134;51.984;5.652;2023-03-03T07:55:48;5.5;69.3
78793;SHT31;68134;51.984;5.652;2023-03-03T07:58:22;5.5;69.4
78793;SHT31;68134;51.984;5.652;2023-03-03T08:01:40;5.6;69.2
78793;SHT31;68134;51.984;5.652;2023-03-03T08:04:15;5.6;69.2
78793;SHT31;68134;51.984;5.652;2023-03-03T08:06:52;5.7;68.9
78793;SHT31;68134;51.984;5.652;2023-03-03T08:09:38;5.7;69.0
78793;SHT31;68134;51.984;5.652;2023-03-03T08:12:26;5.7;68.7
78793;SHT31;68134;51.984;5.652;2023-03-03T08:15:23;5.8;68.6
78793;SHT31;68134;51.984;5.652;2023-03-03T08:17:54;5.8;68.7
78793;SHT31;68134;51.984;5.652;2023-03-03T08:20:44;5.8;69.0
78793;SHT31;68134;51.984;5.652;2023-03-03T08:23:16;5.9;68.1
78793;SHT31;68134;51.984;5.652;2023-03-03T08:25:48;5.9;68.0
78793;SHT31;68134;51.984;5.652;2023-03-03T08:28:19;5.9;67.5
78793;SHT31;68134;51.984;5.652;2023-03-03T08:30:50;6.0;67.3
78793;SHT31;68134;51.984;5.652;2023-03-03T08:33:20;6.0;67.6
78793;SHT31;68134;51.984;5.652;2023-03-03T08:35:49;6.0;67.5
78793;SHT31;68134;51.984;5.652;2023-03-03T08:38:20;6.1;67.4
78793;SHT31;68134;51.984;5.652;2023-03-03T08:40:50;6.1;67.7
78793;SHT31;68134;51.984;5.652;2023-03-03T08:43:21;6.2;67.9
78793;SHT31;68134;51.984;5.652;2023-03-03T08:45:53;6.2;67.5
78793;SHT31;68134;51.984;5.652;2023-03-03T08:48:27;6.3;66.4
78793;SHT31;68134;51.984;5.652;2023-03-03T08:50:58;6.4;65.5
78793;SHT31;68134;51.984;5.652;2023-03-03T08:53:27;6.4;65.8
78793;SHT31;68134;51.984;5.652;2023-03-03T08:55:59;6.5;64.5
78793;SHT31;68134;51.984;5.652;2023-03-03T08:58:29;6.5;64.9
78793;SHT31;68134;51.984;5.652;2023-03-03T09:00:59;6.5;64.8
78793;SHT31;68134;51.984;5.652;2023-03-03T09:03:29;6.5;65.5
78793;SHT31;68134;51.984;5.652;2023-03-03T09:05:58;6.5;65.4
78793;SHT31;68134;51.984;5.652;2023-03-03T09:08:28;6.6;65.7
78793;SHT31;68134;51.984;5.652;2023-03-03T09:10:58;6.6;65.3
78793;SHT31;68134;51.984;5.652;2023-03-03T09:13:29;6.7;65.0
78793;SHT31;68134;51.984;5.652;2023-03-03T09:15:59;6.7;64.2
78793;SHT31;68134;51.984;5.652;2023-03-03T09:18:35;6.8;63.8
78793;SHT31;68134;51.984;5.652;2023-03-03T09:21:20;6.8;62.8
78793;SHT31;68134;51.984;5.652;2023-03-03T09:23:54;6.9;62.2
78793;SHT31;68134;51.984;5.652;2023-03-03T09:26:29;7.0;62.9
78793;SHT31;68134;51.984;5.652;2023-03-03T09:29:18;7.1;62.7
78793;SHT31;68134;51.984;5.652;2023-03-03T09:31:53;7.4;61.9
78793;SHT31;68134;51.984;5.652;2023-03-03T09:34:27;7.9;62.4
78793;SHT31;68134;51.984;5.652;2023-03-03T09:37:02;9.0;59.4
78793;SHT31;68134;51.984;5.652;2023-03-03T09:39:36;10.1;55.1
78793;SHT31;68134;51.984;5.652;2023-03-03T09:42:52;11.0;51.5
78793;SHT31;68134;51.984;5.652;2023-03-03T09:46:11;11.5;49.3
78793;SHT31;68134;51.984;5.652;2023-03-03T09:48:54;11.6;47.8
78793;SHT31;68134;51.984;5.652;2023-03-03T09:51:43;11.6;47.3
78793;SHT31;68134;51.984;5.652;2023-03-03T09:54:31;11.6;47.8
78793;SHT31;68134;51.984;5.652;2023-03-03T09:57:14;11.6;48.4
78793;SHT31;68134;51.984;5.652;2023-03-03T10:00:03;11.9;48.3
78793;SHT31;68134;51.984;5.652;2023-03-03T10:02:47;12.4;47.4
78793;SHT31;68134;51.984;5.652;2023-03-03T10:05:27;13.1;45.0
78793;SHT31;68134;51.984;5.652;2023-03-03T10:08:19;13.6;43.5
78793;SHT31;68134;51.984;5.652;2023-03-03T10:11:01;14.1;42.1
78793;SHT31;68134;51.984;5.652;2023-03-03T10:13:47;14.3;41.1
78793;SHT31;68134;51.984;5.652;2023-03-03T10:16:33;14.4;41.3
78793;SHT31;68134;51.984;5.652;2023-03-03T10:19:18;14.6;41.0
78793;SHT31;68134;51.984;5.652;2023-03-03T10:21:58;14.8;40.0
78793;SHT31;68134;51.984;5.652;2023-03-03T10:24:39;15.0;39.5
78793;SHT31;68134;51.984;5.652;2023-03-03T10:27:24;15.3;39.2
78793;SHT31;68134;51.984;5.652;2023-03-03T10:30:02;15.4;39.0
78793;SHT31;68134;51.984;5.652;2023-03-03T10:32:40;15.6;38.2
78793;SHT31;68134;51.984;5.652;2023-03-03T10:36:47;15.9;37.9
78793;SHT31;68134;51.984;5.652;2023-03-03T10:39:36;16.3;37.1
78793;SHT31;68134;51.984;5.652;2023-03-03T10:42:16;16.6;37.2
78793;SHT31;68134;51.984;5.652;2023-03-03T10:44:57;16.9;36.3
78793;SHT31;68134;51.984;5.652;2023-03-03T10:47:41;17.2;35.7
78793;SHT31;68134;51.984;5.652;2023-03-03T10:50:23;17.5;35.8
78793;SHT31;68134;51.984;5.652;2023-03-03T10:53:11;17.8;35.0
78793;SHT31;68134;51.984;5.652;2023-03-03T10:55:56;18.2;33.6
78793;SHT31;68134;51.984;5.652;2023-03-03T10:58:46;18.5;33.8
78793;SHT31;68134;51.984;5.652;2023-03-03T11:01:27;18.7;33.7
78793;SHT31;68134;51.984;5.652;2023-03-03T11:04:19;18.9;33.3
78793;SHT31;68134;51.984;5.652;2023-03-03T11:06:54;19.2;32.1
78793;SHT31;68134;51.984;5.652;2023-03-03T11:09:37;19.3;32.2
78793;SHT31;68134;51.984;5.652;2023-03-03T11:12:24;19.4;32.8
78793;SHT31;68134;51.984;5.652;2023-03-03T11:15:17;19.5;31.8
78793;SHT31;68134;51.984;5.652;2023-03-03T11:18:05;19.6;31.7
78793;SHT31;68134;51.984;5.652;2023-03-03T11:20:45;19.6;30.7
78793;SHT31;68134;51.984;5.652;2023-03-03T11:23:35;19.6;31.1
78793;SHT31;68134;51.984;5.652;2023-03-03T11:26:14;19.6;31.7
78793;SHT31;68134;51.984;5.652;2023-03-03T11:29:04;19.7;31.2
78793;SHT31;68134;51.984;5.652;2023-03-03T11:31:43;20.0;31.2
78793;SHT31;68134;51.984;5.652;2023-03-03T11:34:28;20.2;30.6
78793;SHT31;68134;51.984;5.652;2023-03-03T11:37:06;20.5;30.3
78793;SHT31;68134;51.984;5.652;2023-03-03T11:39:38;20.7;29.2
78793;SHT31;68134;51.984;5.652;2023-03-03T11:42:18;20.9;29.4
78793;SHT31;68134;51.984;5.652;2023-03-03T11:44:54;21.1;29.2
78793;SHT31;68134;51.984;5.652;2023-03-03T11:47:29;21.3;28.0
78793;SHT31;68134;51.984;5.652;2023-03-03T11:50:05;21.5;28.4
78793;SHT31;68134;51.984;5.652;2023-03-03T11:52:45;21.7;27.9
78793;SHT31;68134;51.984;5.652;2023-03-03T11:55:26;22.0;28.0
78793;SHT31;68134;51.984;5.652;2023-03-03T11:58:07;22.1;27.5
78793;SHT31;68134;51.984;5.652;2023-03-03T12:00:40;22.3;27.4
78793;SHT31;68134;51.984;5.652;2023-03-03T12:03:20;22.5;26.3
78793;SHT31;68134;51.984;5.652;2023-03-03T12:06:07;22.6;26.2
78793;SHT31;68134;51.984;5.652;2023-03-03T12:09:00;22.5;26.0
78793;SHT31;68134;51.984;5.652;2023-03-03T12:11:42;22.2;26.2
78793;SHT31;68134;51.984;5.652;2023-03-03T12:15:08;21.9;27.1
78793;SHT31;68134;51.984;5.652;2023-03-03T12:18:05;21.4;27.1
78793;SHT31;68134;51.984;5.652;2023-03-03T12:20:44;20.9;27.5
78793;SHT31;68134;51.984;5.652;2023-03-03T12:23:32;20.8;27.8
78793;SHT31;68134;51.984;5.652;2023-03-03T12:26:09;20.8;27.9
78793;SHT31;68134;51.984;5.652;2023-03-03T12:28:49;20.9;28.3
78793;SHT31;68134;51.984;5.652;2023-03-03T12:31:41;21.1;27.2
78793;SHT31;68134;51.984;5.652;2023-03-03T12:34:21;21.4;26.3
78793;SHT31;68134;51.984;5.652;2023-03-03T12:37:03;21.6;26.4
78793;SHT31;68134;51.984;5.652;2023-03-03T12:39:43;21.9;26.5
78793;SHT31;68134;51.984;5.652;2023-03-03T12:42:28;22.3;26.7
78793;SHT31;68134;51.984;5.652;2023-03-03T12:45:13;22.8;26.2
78793;SHT31;68134;51.984;5.652;2023-03-03T12:47:49;22.9;24.3
78793;SHT31;68134;51.984;5.652;2023-03-03T12:50:38;22.7;25.4
78793;SHT31;68134;51.984;5.652;2023-03-03T12:53:22;22.5;25.5
78793;SHT31;68134;51.984;5.652;2023-03-03T12:55:57;22.3;25.4
78793;SHT31;68134;51.984;5.652;2023-03-03T12:58:39;22.0;26.0
78793;SHT31;68134;51.984;5.652;2023-03-03T13:01:25;21.5;26.3
78793;SHT31;68134;51.984;5.652;2023-03-03T13:04:04;21.2;26.9
78793;SHT31;68134;51.984;5.652;2023-03-03T13:06:41;21.1;27.0
78793;SHT31;68134;51.984;5.652;2023-03-03T13:09:21;21.0;27.1
78793;SHT31;68134;51.984;5.652;2023-03-03T13:12:10;20.8;26.5
78793;SHT31;68134;51.984;5.652;2023-03-03T13:14:49;20.7;26.6
78793;SHT31;68134;51.984;5.652;2023-03-03T13:17:25;20.7;26.5
78793;SHT31;68134;51.984;5.652;2023-03-03T13:19:59;20.9;27.2
78793;SHT31;68134;51.984;5.652;2023-03-03T13:22:38;21.4;26.9
78793;SHT31;68134;51.984;5.652;2023-03-03T13:25:24;22.0;25.7
78793;SHT31;68134;51.984;5.652;2023-03-03T13:28:01;22.6;25.2
78793;SHT31;68134;51.984;5.652;2023-03-03T13:30:39;23.0;25.0
78793;SHT31;68134;51.984;5.652;2023-03-03T13:33:17;23.3;24.7
78793;SHT31;68134;51.984;5.652;2023-03-03T13:35:53;23.3;24.8
78793;SHT31;68134;51.984;5.652;2023-03-03T13:38:27;23.3;24.6
78793;SHT31;68134;51.984;5.652;2023-03-03T13:41:04;23.2;24.5
78793;SHT31;68134;51.984;5.652;2023-03-03T13:43:44;23.2;24.6
78793;SHT31;68134;51.984;5.652;2023-03-03T13:46:21;23.2;24.8
78793;SHT31;68134;51.984;5.652;2023-03-03T13:49:12;23.3;24.6
78793;SHT31;68134;51.984;5.652;2023-03-03T13:51:55;23.4;24.1
78793;SHT31;68134;51.984;5.652;2023-03-03T13:54:40;23.4;23.9
78793;SHT31;68134;51.984;5.652;2023-03-03T13:57:21;23.3;24.9
78793;SHT31;68134;51.984;5.652;2023-03-03T14:00:04;23.4;24.6
78793;SHT31;68134;51.984;5.652;2023-03-03T14:02:56;23.4;24.3
78793;SHT31;68134;51.984;5.652;2023-03-03T14:05:37;23.1;24.7
78793;SHT31;68134;51.984;5.652;2023-03-03T14:08:15;22.5;24.5
78793;SHT31;68134;51.984;5.652;2023-03-03T14:11:00;21.8;25.9
78793;SHT31;68134;51.984;5.652;2023-03-03T14:13:41;21.1;26.3
78793;SHT31;68134;51.984;5.652;2023-03-03T14:16:16;20.6;27.0
78793;SHT31;68134;51.984;5.652;2023-03-03T14:18:54;20.4;27.9
78793;SHT31;68134;51.984;5.652;2023-03-03T14:21:30;20.4;28.3
78793;SHT31;68134;51.984;5.652;2023-03-03T14:24:07;20.6;27.9
78793;SHT31;68134;51.984;5.652;2023-03-03T14:26:47;20.6;27.9
78793;SHT31;68134;51.984;5.652;2023-03-03T14:29:21;20.4;27.8
78793;SHT31;68134;51.984;5.652;2023-03-03T14:31:58;20.1;28.7
78793;SHT31;68134;51.984;5.652;2023-03-03T14:34:34;19.8;28.8
78793;SHT31;68134;51.984;5.652;2023-03-03T14:37:23;19.6;29.0
78793;SHT31;68134;51.984;5.652;2023-03-03T14:40:21;19.4;29.7
78793;SHT31;68134;51.984;5.652;2023-03-03T14:42:58;19.3;29.4
78793;SHT31;68134;51.984;5.652;2023-03-03T14:45:33;19.3;29.9
78793;SHT31;68134;51.984;5.652;2023-03-03T14:48:16;19.4;30.2
78793;SHT31;68134;51.984;5.652;2023-03-03T14:50:51;19.5;30.1
78793;SHT31;68134;51.984;5.652;2023-03-03T14:53:32;19.5;30.1
78793;SHT31;68134;51.984;5.652;2023-03-03T14:56:21;19.6;30.3
78793;SHT31;68134;51.984;5.652;2023-03-03T14:58:52;19.8;30.2
78793;SHT31;68134;51.984;5.652;2023-03-03T15:01:33;19.9;29.8
78793;SHT31;68134;51.984;5.652;2023-03-03T15:04:06;19.9;29.6
78793;SHT31;68134;51.984;5.652;2023-03-03T15:06:41;19.8;29.0
78793;SHT31;68134;51.984;5.652;2023-03-03T15:09:31;19.6;29.2
78793;SHT31;68134;51.984;5.652;2023-03-03T15:12:22;19.4;29.4
78793;SHT31;68134;51.984;5.652;2023-03-03T15:15:01;19.0;29.4
78793;SHT31;68134;51.984;5.652;2023-03-03T15:17:35;18.7;30.0
78793;SHT31;68134;51.984;5.652;2023-03-03T15:20:24;18.4;30.3
78793;SHT31;68134;51.984;5.652;2023-03-03T15:23:05;18.2;30.3
78793;SHT31;68134;51.984;5.652;2023-03-03T15:25:46;18.0;30.5
78793;SHT31;68134;51.984;5.652;2023-03-03T15:28:23;17.7;31.1
78793;SHT31;68134;51.984;5.652;2023-03-03T15:31:02;17.4;32.0
78793;SHT31;68134;51.984;5.652;2023-03-03T15:33:44;17.2;31.9
78793;SHT31;68134;51.984;5.652;2023-03-03T15:36:25;17.0;32.2
78793;SHT31;68134;51.984;5.652;2023-03-03T15:39:07;16.9;32.3
78793;SHT31;68134;51.984;5.652;2023-03-03T15:41:43;16.7;32.8
78793;SHT31;68134;51.984;5.652;2023-03-03T15:44:25;16.6;32.7
78793;SHT31;68134;51.984;5.652;2023-03-03T15:47:12;16.4;32.7
78793;SHT31;68134;51.984;5.652;2023-03-03T15:50:06;16.2;33.7
78793;SHT31;68134;51.984;5.652;2023-03-03T15:52:49;16.1;34.0
78793;SHT31;68134;51.984;5.652;2023-03-03T15:55:34;15.9;34.1
78793;SHT31;68134;51.984;5.652;2023-03-03T15:58:21;15.8;34.2
78793;SHT31;68134;51.984;5.652;2023-03-03T16:00:56;15.7;34.4
78793;SHT31;68134;51.984;5.652;2023-03-03T16:03:34;15.5;34.8
78793;SHT31;68134;51.984;5.652;2023-03-03T16:06:09;15.4;35.0
78793;SHT31;68134;51.984;5.652;2023-03-03T16:08:47;15.3;35.9
78793;SHT31;68134;51.984;5.652;2023-03-03T16:11:23;15.2;36.4
78793;SHT31;68134;51.984;5.652;2023-03-03T16:14:02;15.1;36.7
78793;SHT31;68134;51.984;5.652;2023-03-03T16:16:49;15.0;37.0
78793;SHT31;68134;51.984;5.652;2023-03-03T16:19:34;15.0;37.5
78793;SHT31;68134;51.984;5.652;2023-03-03T16:22:26;14.9;37.1
78793;SHT31;68134;51.984;5.652;2023-03-03T16:25:05;14.8;36.7
78793;SHT31;68134;51.984;5.652;2023-03-03T16:27:49;14.7;36.9
78793;SHT31;68134;51.984;5.652;2023-03-03T16:30:27;14.6;37.4
78793;SHT31;68134;51.984;5.652;2023-03-03T16:33:12;14.5;37.5
78793;SHT31;68134;51.984;5.652;2023-03-03T16:35:50;14.4;37.9
78793;SHT31;68134;51.984;5.652;2023-03-03T16:38:25;14.3;38.4
78793;SHT31;68134;51.984;5.652;2023-03-03T16:40:59;14.2;38.6
78793;SHT31;68134;51.984;5.652;2023-03-03T16:43:41;14.1;38.5
78793;SHT31;68134;51.984;5.652;2023-03-03T16:46:21;14.0;38.4
78793;SHT31;68134;51.984;5.652;2023-03-03T16:49:02;13.9;38.9
78793;SHT31;68134;51.984;5.652;2023-03-03T16:51:40;13.8;38.5
78793;SHT31;68134;51.984;5.652;2023-03-03T16:54:19;13.8;38.6
78793;SHT31;68134;51.984;5.652;2023-03-03T16:57:01;13.7;38.8
78793;SHT31;68134;51.984;5.652;2023-03-03T16:59:42;13.6;38.8
78793;SHT31;68134;51.984;5.652;2023-03-03T17:06:53;13.3;39.5
78793;SHT31;68134;51.984;5.652;2023-03-03T17:09:43;13.3;39.3
78793;SHT31;68134;51.984;5.652;2023-03-03T17:12:28;13.2;39.0
78793;SHT31;68134;51.984;5.652;2023-03-03T17:15:08;13.1;39.1
78793;SHT31;68134;51.984;5.652;2023-03-03T17:17:43;13.0;39.3
78793;SHT31;68134;51.984;5.652;2023-03-03T17:20:31;12.8;39.3
78793;SHT31;68134;51.984;5.652;2023-03-03T17:23:24;12.7;39.3